createdAt,value
2019-01-13T00:00:33.940Z,2.93
2019-01-13T00:03:37.862Z,2.90
2019-01-13T00:06:41.776Z,2.40
2019-01-13T00:09:45.795Z,2.93
2019-01-13T00:12:49.745Z,1.83
2019-01-13T00:15:53.705Z,1.83
2019-01-13T00:18:57.673Z,1.37
2019-01-13T00:22:01.678Z,1.63
2019-01-13T00:25:06.152Z,2.07
2019-01-13T00:28:13.874Z,2.00
2019-01-13T00:31:17.826Z,1.40
2019-01-13T00:34:21.750Z,1.50
2019-01-13T00:37:25.778Z,2.00
2019-01-13T00:40:32.087Z,1.50
2019-01-13T00:43:36.020Z,2.20
2019-01-13T00:46:40.030Z,2.27
2019-01-13T00:49:43.880Z,2.70
2019-01-13T00:52:47.893Z,3.10
2019-01-13T00:55:51.829Z,3.07
2019-01-13T00:58:55.981Z,2.37
2019-01-13T01:01:59.978Z,2.23
2019-01-13T01:05:04.546Z,2.27
2019-01-13T01:08:09.299Z,2.87
2019-01-13T01:11:14.515Z,3.07
2019-01-13T01:14:18.530Z,3.10
2019-01-13T01:17:22.453Z,2.37
2019-01-13T01:20:26.377Z,2.87
2019-01-13T01:23:31.600Z,2.93
2019-01-13T01:26:37.561Z,2.70
2019-01-13T01:29:41.503Z,2.53
2019-01-13T01:32:46.625Z,3.90
2019-01-13T01:35:52.166Z,3.57
2019-01-13T01:38:56.032Z,4.67
2019-01-13T01:41:59.867Z,3.40
2019-01-13T01:45:04.675Z,3.13
2019-01-13T01:48:08.609Z,4.13
2019-01-13T01:51:12.437Z,3.30
2019-01-13T01:54:16.307Z,2.43
2019-01-13T01:57:20.223Z,2.80
2019-01-13T02:00:26.538Z,2.80
2019-01-13T02:03:30.558Z,4.00
2019-01-13T02:06:34.543Z,2.67
2019-01-13T02:09:38.476Z,3.40
2019-01-13T02:12:42.470Z,3.20
2019-01-13T02:15:46.727Z,2.87
2019-01-13T02:18:50.719Z,4.70
2019-01-13T02:21:54.652Z,3.57
2019-01-13T02:24:58.493Z,3.20
2019-01-13T02:28:02.484Z,2.90
2019-01-13T02:31:06.421Z,3.27
2019-01-13T02:34:10.332Z,2.70
2019-01-13T02:37:14.273Z,2.70
2019-01-13T02:40:19.519Z,2.30
2019-01-13T02:43:23.362Z,2.53
2019-01-13T02:46:27.310Z,3.40
2019-01-13T02:49:33.394Z,2.80
2019-01-13T02:52:37.311Z,3.30
2019-01-13T02:55:41.204Z,2.93
2019-01-13T02:58:45.547Z,3.20
2019-01-13T03:01:49.499Z,3.37
2019-01-13T03:04:53.749Z,2.80
2019-01-13T03:07:57.742Z,3.60
2019-01-13T03:11:01.760Z,3.30
2019-01-13T03:14:06.147Z,4.60
2019-01-13T03:17:10.150Z,3.67
2019-01-13T03:20:14.656Z,3.23
2019-01-13T03:23:20.955Z,2.87
2019-01-13T03:26:28.592Z,3.53
2019-01-13T03:29:32.518Z,3.50
2019-01-13T03:32:36.375Z,2.90
2019-01-13T03:35:40.211Z,2.80
2019-01-13T03:38:44.045Z,3.37
2019-01-13T03:41:48.194Z,2.57
2019-01-13T03:44:52.131Z,3.20
2019-01-13T03:47:56.056Z,3.67
2019-01-13T03:50:59.966Z,4.03
2019-01-13T03:54:04.056Z,3.23
2019-01-13T03:57:08.381Z,4.03
2019-01-13T04:00:31.505Z,4.27
2019-01-13T04:03:35.502Z,3.50
2019-01-13T04:06:41.539Z,2.53
2019-01-13T04:09:45.385Z,3.13
2019-01-13T04:12:50.856Z,3.00
2019-01-13T04:16:04.099Z,2.83
2019-01-13T04:19:07.954Z,3.70
2019-01-13T04:22:11.958Z,3.40
2019-01-13T04:25:15.820Z,3.10
2019-01-13T04:28:21.926Z,1.70
2019-01-13T04:31:29.554Z,2.10
2019-01-13T04:34:33.469Z,2.60
2019-01-13T04:37:39.789Z,2.70
2019-01-13T04:40:43.695Z,1.77
2019-01-13T04:43:47.609Z,2.20
2019-01-13T04:46:51.529Z,1.80
2019-01-13T04:49:55.447Z,1.60
2019-01-13T04:52:59.289Z,1.83
2019-01-13T04:56:03.297Z,2.57
2019-01-13T04:59:07.154Z,1.50
2019-01-13T05:02:11.475Z,1.80
2019-01-13T05:05:15.525Z,1.17
2019-01-13T05:08:19.514Z,1.57
2019-01-13T05:11:23.462Z,1.70
2019-01-13T05:14:27.298Z,2.70
2019-01-13T05:17:31.145Z,1.40
2019-01-13T05:20:35.012Z,1.50
2019-01-13T05:23:38.859Z,2.10
2019-01-13T05:26:42.722Z,1.50
2019-01-13T05:29:46.653Z,1.73
2019-01-13T05:32:50.773Z,1.30
2019-01-13T05:35:54.643Z,1.43
2019-01-13T05:38:58.486Z,1.77
2019-01-13T05:42:02.320Z,1.30
2019-01-13T05:45:07.215Z,1.00
2019-01-13T05:48:11.201Z,1.63
2019-01-13T05:51:15.766Z,1.67
2019-01-13T05:54:19.628Z,1.30
2019-01-13T05:57:23.550Z,1.67
2019-01-13T06:00:30.739Z,1.20
2019-01-13T06:03:37.004Z,1.50
2019-01-13T06:06:41.024Z,1.80
2019-01-13T06:09:45.034Z,1.40
2019-01-13T06:12:49.148Z,1.53
2019-01-13T06:15:53.076Z,1.33
2019-01-13T06:18:57.042Z,1.60
2019-01-13T06:22:01.020Z,1.37
2019-01-13T06:25:05.537Z,1.57
2019-01-13T06:28:09.471Z,1.67
2019-01-13T06:31:13.478Z,2.10
2019-01-13T06:34:17.925Z,2.37
2019-01-13T06:37:21.771Z,1.70
2019-01-13T06:40:27.893Z,1.40
2019-01-13T06:43:31.786Z,2.20
2019-01-13T06:46:35.703Z,1.53
2019-01-13T06:49:40.146Z,2.00
2019-01-13T06:52:44.250Z,1.80
2019-01-13T06:55:50.261Z,2.27
2019-01-13T06:58:54.086Z,2.17
2019-01-13T07:02:03.513Z,2.30
2019-01-13T07:05:06.703Z,3.97
2019-01-13T07:08:10.535Z,3.70
2019-01-13T07:11:14.451Z,4.30
2019-01-13T07:14:18.389Z,3.63
2019-01-13T07:17:22.333Z,2.60
2019-01-13T07:20:26.238Z,2.40
2019-01-13T07:23:30.174Z,1.87
2019-01-13T07:26:34.091Z,1.50
2019-01-13T07:29:37.929Z,1.67
2019-01-13T07:32:41.843Z,1.77
2019-01-13T07:35:45.763Z,2.53
2019-01-13T07:38:49.598Z,1.67
2019-01-13T07:41:53.450Z,2.03
2019-01-13T07:44:57.409Z,1.43
2019-01-13T07:48:01.249Z,1.67
2019-01-13T07:51:05.279Z,1.20
2019-01-13T07:54:09.233Z,0.80
2019-01-13T07:57:13.130Z,1.10
2019-01-13T08:00:22.382Z,0.57
2019-01-13T08:03:27.489Z,0.50
2019-01-13T08:06:31.424Z,0.80
2019-01-13T08:09:35.269Z,0.50
2019-01-13T08:12:39.111Z,0.60
2019-01-13T08:15:44.317Z,0.50
2019-01-13T08:18:48.167Z,0.80
2019-01-13T08:21:52.148Z,0.80
2019-01-13T08:24:56.037Z,0.77
2019-01-13T08:28:02.094Z,0.60
2019-01-13T08:31:06.154Z,0.50
2019-01-13T08:34:13.510Z,0.50
2019-01-13T08:37:17.401Z,0.50
2019-01-13T08:40:22.943Z,0.40
2019-01-13T08:43:26.960Z,0.43
2019-01-13T08:46:30.814Z,0.30
2019-01-13T08:49:34.999Z,0.60
2019-01-13T08:52:38.848Z,0.80
2019-01-13T08:55:42.843Z,0.50
2019-01-13T08:58:46.695Z,0.70
2019-01-13T09:01:50.544Z,0.50
2019-01-13T09:04:55.990Z,0.60
2019-01-13T09:07:59.974Z,0.80
2019-01-13T09:11:03.894Z,0.70
2019-01-13T09:14:07.812Z,1.00
2019-01-13T09:17:11.798Z,0.90
2019-01-13T09:20:27.156Z,0.93
2019-01-13T09:23:31.078Z,0.80
2019-01-13T09:26:35.101Z,0.70
2019-01-13T09:29:42.520Z,1.20
2019-01-13T09:32:44.880Z,0.97
2019-01-13T09:35:48.971Z,0.80
2019-01-13T09:38:52.953Z,1.40
2019-01-13T09:41:56.879Z,0.90
2019-01-13T09:45:00.826Z,1.13
2019-01-13T09:48:05.024Z,1.87
2019-01-13T09:51:08.969Z,2.00
2019-01-13T09:54:12.921Z,2.70
2019-01-13T09:57:18.727Z,2.03
2019-01-13T10:00:33.725Z,1.70
2019-01-13T10:03:37.746Z,1.83
2019-01-13T10:06:41.598Z,2.37
2019-01-13T10:09:45.555Z,2.30
2019-01-13T10:12:49.523Z,1.73
2019-01-13T10:16:00.475Z,2.23
2019-01-13T10:19:04.913Z,1.63
2019-01-13T10:22:08.866Z,2.40
2019-01-13T10:25:13.698Z,2.00
2019-01-13T10:28:17.701Z,2.00
2019-01-13T10:31:21.704Z,1.50
2019-01-13T10:34:28.114Z,1.80
2019-01-13T10:37:32.141Z,2.43
2019-01-13T10:40:36.061Z,2.43
2019-01-13T10:43:40.064Z,3.07
2019-01-13T10:46:44.451Z,1.97
2019-01-13T10:49:50.190Z,1.87
2019-01-13T10:52:56.366Z,1.50
2019-01-13T10:56:05.535Z,1.80
2019-01-13T10:59:12.659Z,2.87
2019-01-13T11:02:16.589Z,1.97
2019-01-13T11:05:22.360Z,2.33
2019-01-13T11:08:26.719Z,2.50
2019-01-13T11:11:30.710Z,3.00
2019-01-13T11:14:34.660Z,2.67
2019-01-13T11:17:38.680Z,3.40
2019-01-13T11:20:42.537Z,2.87
2019-01-13T11:23:49.983Z,2.60
2019-01-13T11:26:53.943Z,3.17
2019-01-13T11:29:57.806Z,2.83
2019-01-13T11:33:09.101Z,1.97
2019-01-13T11:36:10.863Z,2.97
2019-01-13T11:39:15.249Z,3.27
2019-01-13T11:42:19.288Z,2.73
2019-01-13T11:45:23.522Z,2.07
2019-01-13T11:48:27.394Z,2.50
2019-01-13T11:51:31.410Z,2.50
2019-01-13T11:54:35.289Z,3.20
2019-01-13T11:57:39.942Z,2.50
2019-01-13T12:00:47.538Z,2.20
2019-01-13T12:03:51.495Z,2.23
2019-01-13T12:06:55.447Z,3.10
2019-01-13T12:09:59.420Z,2.70
2019-01-13T12:13:06.088Z,2.70
2019-01-13T12:16:10.060Z,3.37
2019-01-13T12:19:13.936Z,2.53
2019-01-13T12:22:20.036Z,3.07
2019-01-13T12:25:24.648Z,4.03
2019-01-13T12:28:28.816Z,2.87
2019-01-13T12:31:35.808Z,3.07
2019-01-13T12:34:39.827Z,4.17
2019-01-13T12:37:43.839Z,3.93
2019-01-13T12:40:47.777Z,3.60
2019-01-13T12:43:51.642Z,3.10
2019-01-13T12:46:55.510Z,2.73
2019-01-13T12:49:59.539Z,3.07
2019-01-13T12:53:03.572Z,4.00
2019-01-13T12:56:07.528Z,2.97
2019-01-13T12:59:11.399Z,2.93
2019-01-13T13:02:15.654Z,2.20
2019-01-13T13:05:19.693Z,1.67
2019-01-13T13:08:23.639Z,1.83
2019-01-13T13:11:27.613Z,1.30
2019-01-13T13:14:33.991Z,1.20
2019-01-13T13:17:38.534Z,1.10
2019-01-13T13:20:42.476Z,0.80
2019-01-13T13:23:46.379Z,0.80
2019-01-13T13:26:50.326Z,0.70
2019-01-13T13:29:54.161Z,0.43
2019-01-13T13:33:01.421Z,1.00
2019-01-13T13:36:07.314Z,0.80
2019-01-13T13:39:14.412Z,0.77
2019-01-13T13:42:21.492Z,0.90
2019-01-13T13:45:25.520Z,0.70
2019-01-13T13:48:29.549Z,0.80
2019-01-13T13:51:33.458Z,0.70
2019-01-13T13:54:37.467Z,0.53
2019-01-13T13:57:41.475Z,0.67
2019-01-13T14:00:46.158Z,0.53
2019-01-13T14:03:50.107Z,0.97
2019-01-13T14:06:54.003Z,0.60
2019-01-13T14:09:57.940Z,0.80
2019-01-13T14:13:01.989Z,0.70
2019-01-13T14:16:06.049Z,1.00
2019-01-13T14:19:10.031Z,1.83
2019-01-13T14:22:13.932Z,2.00
2019-01-13T14:25:21.116Z,1.10
2019-01-13T14:28:25.171Z,1.00
2019-01-13T14:31:29.201Z,2.03
2019-01-13T14:34:33.144Z,1.67
2019-01-13T14:37:37.071Z,2.03
2019-01-13T14:40:42.590Z,1.77
2019-01-13T14:43:46.518Z,2.73
2019-01-13T14:46:50.415Z,3.20
2019-01-13T14:49:54.271Z,2.90
2019-01-13T14:52:58.293Z,3.07
2019-01-13T14:56:02.366Z,4.03
2019-01-13T14:59:06.712Z,3.63
2019-01-13T15:02:10.571Z,4.63
2019-01-13T15:05:14.652Z,3.10
2019-01-13T15:08:18.701Z,3.70
2019-01-13T15:11:22.610Z,3.90
2019-01-13T15:14:28.379Z,4.13
2019-01-13T15:17:35.077Z,2.53
2019-01-13T15:20:40.609Z,3.10
2019-01-13T15:23:44.649Z,2.87
2019-01-13T15:26:50.722Z,4.03
2019-01-13T15:29:56.616Z,3.30
2019-01-13T15:33:00.641Z,3.30
2019-01-13T15:36:06.559Z,2.40
2019-01-13T15:39:10.511Z,4.93
2019-01-13T15:42:14.751Z,2.83
2019-01-13T15:45:18.984Z,2.93
2019-01-13T15:48:22.955Z,3.70
2019-01-13T15:51:26.990Z,3.23
2019-01-13T15:54:30.979Z,1.90
2019-01-13T15:57:35.028Z,3.50
2019-01-13T16:00:39.517Z,2.73
2019-01-13T16:03:43.438Z,4.30
2019-01-13T16:06:49.412Z,3.33
2019-01-13T16:09:53.355Z,4.13
2019-01-13T16:12:58.057Z,3.40
2019-01-13T16:16:04.532Z,4.10
2019-01-13T16:19:10.750Z,2.87
2019-01-13T16:22:14.980Z,3.30
2019-01-13T16:25:19.016Z,4.47
2019-01-13T16:28:22.975Z,3.50
2019-01-13T16:31:26.927Z,3.63
2019-01-13T16:34:30.868Z,5.40
2019-01-13T16:37:34.797Z,3.43
2019-01-13T16:40:38.806Z,4.47
2019-01-13T16:43:44.154Z,3.03
2019-01-13T16:46:48.084Z,3.90
2019-01-13T16:49:52.063Z,3.43
2019-01-13T16:52:57.430Z,4.07
2019-01-13T16:56:01.398Z,3.03
2019-01-13T16:59:05.643Z,2.60
2019-01-13T17:02:09.582Z,3.53
2019-01-13T17:05:15.107Z,2.87
2019-01-13T17:08:19.325Z,2.67
2019-01-13T17:11:26.141Z,2.67
2019-01-13T17:14:30.374Z,3.17
2019-01-13T17:17:37.392Z,2.63
2019-01-13T17:20:41.374Z,4.13
2019-01-13T17:23:45.306Z,2.90
2019-01-13T17:26:49.371Z,3.53
2019-01-13T17:29:53.366Z,3.80
2019-01-13T17:32:57.386Z,3.07
2019-01-13T17:36:04.136Z,4.77
2019-01-13T17:39:09.600Z,4.33
2019-01-13T17:42:13.676Z,4.53
2019-01-13T17:45:18.829Z,4.33
2019-01-13T17:48:22.794Z,4.50
2019-01-13T17:51:28.890Z,3.17
2019-01-13T17:54:32.913Z,3.83
2019-01-13T17:57:37.086Z,3.00
2019-01-13T18:01:12.494Z,3.33
2019-01-13T18:04:16.662Z,3.50
2019-01-13T18:07:23.550Z,4.13
2019-01-13T18:10:27.571Z,4.20
2019-01-13T18:13:31.527Z,3.57
2019-01-13T18:16:35.466Z,3.67
2019-01-13T18:19:39.343Z,4.17
2019-01-13T18:22:47.100Z,3.57
2019-01-13T18:25:51.132Z,4.53
2019-01-13T18:28:55.206Z,2.90
2019-01-13T18:31:59.130Z,3.23
2019-01-13T18:35:03.211Z,3.20
2019-01-13T18:38:09.210Z,3.40
2019-01-13T18:41:17.307Z,2.57
2019-01-13T18:44:21.180Z,2.77
2019-01-13T18:47:25.161Z,4.30
2019-01-13T18:50:29.078Z,3.00
2019-01-13T18:53:33.106Z,3.00
2019-01-13T18:56:37.147Z,3.07
2019-01-13T18:59:41.034Z,4.13
2019-01-13T19:02:45.465Z,3.97
2019-01-13T19:05:51.222Z,3.83
2019-01-13T19:08:58.279Z,3.00
2019-01-13T19:12:04.608Z,3.27
2019-01-13T19:15:09.758Z,3.10
2019-01-13T19:18:17.481Z,3.37
2019-01-13T19:21:21.694Z,5.33
2019-01-13T19:24:28.613Z,4.93
2019-01-13T19:27:32.655Z,4.17
2019-01-13T19:30:38.760Z,4.33
2019-01-13T19:33:44.656Z,5.30
2019-01-13T19:36:48.758Z,3.63
2019-01-13T19:39:52.710Z,4.00
2019-01-13T19:42:56.764Z,3.33
2019-01-13T19:46:00.808Z,3.40
2019-01-13T19:49:12.098Z,4.87
2019-01-13T19:52:16.268Z,5.00
2019-01-13T19:55:20.639Z,4.33
2019-01-13T19:58:24.840Z,5.20
2019-01-13T20:01:29.093Z,4.17
2019-01-13T20:04:33.282Z,5.63
2019-01-13T20:07:38.501Z,4.50
2019-01-13T20:10:42.583Z,4.17
2019-01-13T20:13:46.702Z,4.70
2019-01-13T20:16:50.823Z,4.27
2019-01-13T20:19:54.966Z,4.70
2019-01-13T20:22:59.077Z,5.67
2019-01-13T20:26:03.250Z,3.30
2019-01-13T20:29:07.401Z,4.93
2019-01-13T20:32:11.761Z,4.60
2019-01-13T20:35:19.614Z,4.43
2019-01-13T20:38:26.899Z,6.00
2019-01-13T20:41:33.738Z,3.70
2019-01-13T20:44:37.664Z,6.03
2019-01-13T20:47:45.646Z,5.80
2019-01-13T20:50:49.820Z,4.40
2019-01-13T20:53:53.942Z,5.17
2019-01-13T20:56:58.125Z,5.23
2019-01-13T21:00:04.374Z,5.20
2019-01-13T21:03:09.123Z,4.10
2019-01-13T21:06:13.172Z,4.40
2019-01-13T21:09:20.055Z,5.53
2019-01-13T21:12:28.735Z,4.90
2019-01-13T21:15:37.219Z,4.47
2019-01-13T21:18:49.483Z,4.10
2019-01-13T21:21:53.523Z,4.40
2019-01-13T21:24:59.644Z,5.70
2019-01-13T21:28:03.977Z,4.87
2019-01-13T21:31:14.024Z,2.57
2019-01-13T21:34:18.052Z,3.17
2019-01-13T21:37:22.008Z,5.00
2019-01-13T21:40:25.958Z,5.10
2019-01-13T21:43:30.022Z,5.07
2019-01-13T21:46:36.979Z,4.60
2019-01-13T21:49:40.922Z,5.50
2019-01-13T21:52:47.482Z,5.30
2019-01-13T21:55:51.450Z,4.77
2019-01-13T21:58:55.450Z,5.43
2019-01-13T22:01:59.392Z,5.60
2019-01-13T22:05:03.598Z,4.27
2019-01-13T22:08:07.624Z,4.77
2019-01-13T22:11:11.829Z,6.10
2019-01-13T22:14:15.688Z,5.03
2019-01-13T22:17:19.549Z,3.33
2019-01-13T22:20:24.179Z,5.37
2019-01-13T22:23:28.119Z,3.67
2019-01-13T22:26:32.424Z,5.53
2019-01-13T22:29:38.633Z,4.73
2019-01-13T22:32:42.571Z,4.23
2019-01-13T22:35:48.314Z,5.30
2019-01-13T22:38:52.121Z,3.53
2019-01-13T22:41:56.131Z,4.23
2019-01-13T22:44:59.995Z,4.10
2019-01-13T22:48:03.856Z,2.80
2019-01-13T22:51:07.827Z,4.90
2019-01-13T22:54:11.771Z,4.73
2019-01-13T22:57:15.679Z,3.67
2019-01-13T23:00:54.660Z,4.07
2019-01-13T23:04:05.274Z,3.57
2019-01-13T23:07:09.289Z,4.10
2019-01-13T23:10:13.233Z,3.93
2019-01-13T23:13:17.577Z,3.43
2019-01-13T23:16:26.103Z,3.17
2019-01-13T23:19:30.125Z,4.67
2019-01-13T23:22:34.141Z,3.00
2019-01-13T23:25:37.986Z,2.67
2019-01-13T23:28:41.990Z,3.47
2019-01-13T23:31:46.032Z,3.03
2019-01-13T23:34:50.018Z,2.87
2019-01-13T23:37:53.984Z,3.20
2019-01-13T23:40:57.922Z,3.50
2019-01-13T23:44:01.811Z,2.47
2019-01-13T23:47:05.763Z,2.60
2019-01-13T23:50:09.858Z,2.70
2019-01-13T23:53:13.852Z,2.83
2019-01-13T23:56:19.631Z,3.90
2019-01-13T23:59:24.861Z,2.20
